createdAt,value
2019-03-27T00:02:16.838Z,53.10
2019-03-27T00:04:48.944Z,53.10
2019-03-27T00:07:21.153Z,53.20
2019-03-27T00:09:53.253Z,53.30
2019-03-27T00:12:25.550Z,53.30
2019-03-27T00:15:11.544Z,53.30
2019-03-27T00:17:31.628Z,53.40
2019-03-27T00:20:03.846Z,53.50
2019-03-27T00:22:35.905Z,53.50
2019-03-27T00:25:08.276Z,53.70
2019-03-27T00:27:40.245Z,53.70
2019-03-27T00:30:12.411Z,53.60
2019-03-27T00:32:44.372Z,53.70
2019-03-27T00:35:16.320Z,53.80
2019-03-27T00:37:48.464Z,54.00
2019-03-27T00:40:20.373Z,53.80
2019-03-27T00:42:52.321Z,53.90
2019-03-27T00:45:26.898Z,53.80
2019-03-27T00:47:57.710Z,53.90
2019-03-27T00:50:29.633Z,54.00
2019-03-27T00:53:01.624Z,54.00
2019-03-27T00:55:33.646Z,54.10
2019-03-27T00:58:05.629Z,54.10
2019-03-27T01:01:03.828Z,54.20
2019-03-27T01:03:35.809Z,54.10
2019-03-27T01:06:07.990Z,54.20
2019-03-27T01:08:40.070Z,54.30
2019-03-27T01:11:12.117Z,54.50
2019-03-27T01:13:44.074Z,54.40
2019-03-27T01:16:15.985Z,54.50
2019-03-27T01:18:48.856Z,54.50
2019-03-27T01:21:20.779Z,54.70
2019-03-27T01:23:52.822Z,54.80
2019-03-27T01:26:24.763Z,54.90
2019-03-27T01:28:56.861Z,54.80
2019-03-27T01:31:28.815Z,54.80
2019-03-27T01:34:01.757Z,55.00
2019-03-27T01:36:33.712Z,55.00
2019-03-27T01:39:07.205Z,55.20
2019-03-27T01:41:39.213Z,55.10
2019-03-27T01:44:11.321Z,55.20
2019-03-27T01:46:43.355Z,55.20
2019-03-27T01:49:15.297Z,55.20
2019-03-27T01:51:47.503Z,55.40
2019-03-27T01:54:19.456Z,55.30
2019-03-27T01:56:51.373Z,55.90
2019-03-27T01:59:23.519Z,55.40
2019-03-27T02:01:55.357Z,55.50
2019-03-27T02:04:27.414Z,55.50
2019-03-27T02:06:59.445Z,55.50
2019-03-27T02:09:31.496Z,55.50
2019-03-27T02:12:03.332Z,55.60
2019-03-27T02:14:35.218Z,55.60
2019-03-27T02:17:07.217Z,55.60
2019-03-27T02:19:39.272Z,55.70
2019-03-27T02:22:12.810Z,55.60
2019-03-27T02:24:44.785Z,55.60
2019-03-27T02:27:16.854Z,55.60
2019-03-27T02:29:48.956Z,55.70
2019-03-27T02:32:22.146Z,55.70
2019-03-27T02:34:55.120Z,55.70
2019-03-27T02:37:27.020Z,55.60
2019-03-27T02:39:59.056Z,55.60
2019-03-27T02:42:31.064Z,55.60
2019-03-27T02:45:03.181Z,55.80
2019-03-27T02:47:35.118Z,55.80
2019-03-27T02:50:07.474Z,55.90
2019-03-27T02:52:40.523Z,55.80
2019-03-27T02:55:12.538Z,55.80
2019-03-27T02:57:44.606Z,55.80
2019-03-27T03:00:16.974Z,55.90
2019-03-27T03:02:48.905Z,56.00
2019-03-27T03:05:21.009Z,56.10
2019-03-27T03:07:52.997Z,56.10
2019-03-27T03:10:25.030Z,56.20
2019-03-27T03:12:56.973Z,56.30
2019-03-27T03:15:29.080Z,56.30
2019-03-27T03:18:01.206Z,56.20
2019-03-27T03:20:34.122Z,56.20
2019-03-27T03:23:06.252Z,56.40
2019-03-27T03:25:38.418Z,56.40
2019-03-27T03:28:10.340Z,56.40
2019-03-27T03:30:42.390Z,56.40
2019-03-27T03:33:14.523Z,56.50
2019-03-27T03:35:46.489Z,56.50
2019-03-27T03:38:18.502Z,56.60
2019-03-27T03:40:50.407Z,56.70
2019-03-27T03:43:22.671Z,56.70
2019-03-27T03:45:54.526Z,56.80
2019-03-27T03:48:26.571Z,56.80
2019-03-27T03:51:01.083Z,57.50
2019-03-27T03:53:33.496Z,56.90
2019-03-27T03:56:05.870Z,56.90
2019-03-27T03:58:39.570Z,56.90
2019-03-27T04:01:11.557Z,56.80
2019-03-27T04:03:44.707Z,56.90
2019-03-27T04:06:16.654Z,56.80
2019-03-27T04:08:48.581Z,57.00
2019-03-27T04:11:21.573Z,57.00
2019-03-27T04:13:53.686Z,57.00
2019-03-27T04:16:25.706Z,57.10
2019-03-27T04:18:57.638Z,57.20
2019-03-27T04:21:29.613Z,57.30
2019-03-27T04:24:01.548Z,57.30
2019-03-27T04:26:33.790Z,57.30
2019-03-27T04:29:05.793Z,57.30
2019-03-27T04:31:38.082Z,57.40
2019-03-27T04:34:10.272Z,57.40
2019-03-27T04:36:42.329Z,57.50
2019-03-27T04:39:14.274Z,57.60
2019-03-27T04:41:46.277Z,57.70
2019-03-27T04:44:18.371Z,57.60
2019-03-27T04:46:50.454Z,57.60
2019-03-27T04:49:22.411Z,57.60
2019-03-27T04:51:54.364Z,57.60
2019-03-27T04:54:27.134Z,57.70
2019-03-27T04:56:59.323Z,57.70
2019-03-27T04:59:31.311Z,57.70
2019-03-27T05:02:06.538Z,57.70
2019-03-27T05:04:37.401Z,57.70
2019-03-27T05:07:09.557Z,57.70
2019-03-27T05:09:41.732Z,57.70
2019-03-27T05:12:13.818Z,57.70
2019-03-27T05:14:45.682Z,57.80
2019-03-27T05:17:17.889Z,57.70
2019-03-27T05:19:49.896Z,57.70
2019-03-27T05:22:21.818Z,57.70
2019-03-27T05:24:54.072Z,57.80
2019-03-27T05:27:28.107Z,57.80
2019-03-27T05:30:00.059Z,57.80
2019-03-27T05:32:32.549Z,57.70
2019-03-27T05:35:04.883Z,58.30
2019-03-27T05:37:36.901Z,57.70
2019-03-27T05:40:09.098Z,57.80
2019-03-27T05:42:41.256Z,57.80
2019-03-27T05:45:13.332Z,57.70
2019-03-27T05:47:58.556Z,57.90
2019-03-27T05:50:19.281Z,58.10
2019-03-27T05:52:51.527Z,58.10
2019-03-27T05:55:26.472Z,58.10
2019-03-27T05:57:57.649Z,58.10
2019-03-27T06:00:29.562Z,58.20
2019-03-27T06:03:01.881Z,58.30
2019-03-27T06:05:33.850Z,58.30
2019-03-27T06:08:05.722Z,58.40
2019-03-27T06:10:37.761Z,58.30
2019-03-27T06:13:09.819Z,58.30
2019-03-27T06:15:44.898Z,58.30
2019-03-27T06:18:15.476Z,58.10
2019-03-27T06:20:47.663Z,58.30
2019-03-27T06:23:19.695Z,58.20
2019-03-27T06:25:52.869Z,58.20
2019-03-27T06:28:26.587Z,58.10
2019-03-27T06:30:58.761Z,58.10
2019-03-27T06:33:31.710Z,58.20
2019-03-27T06:36:03.870Z,58.20
2019-03-27T06:38:35.795Z,58.10
2019-03-27T06:41:07.837Z,58.10
2019-03-27T06:43:39.872Z,58.10
2019-03-27T06:46:11.936Z,58.00
2019-03-27T06:48:43.984Z,58.10
2019-03-27T06:51:15.964Z,58.20
2019-03-27T06:53:47.976Z,58.20
2019-03-27T06:56:27.781Z,58.20
2019-03-27T06:58:59.881Z,58.10
2019-03-27T07:01:31.922Z,58.10
2019-03-27T07:04:10.320Z,58.10
2019-03-27T07:06:37.801Z,58.10
2019-03-27T07:09:10.309Z,58.10
2019-03-27T07:11:42.390Z,58.00
2019-03-27T07:14:14.452Z,57.80
2019-03-27T07:16:46.395Z,57.70
2019-03-27T07:19:18.489Z,57.70
2019-03-27T07:21:50.592Z,57.70
2019-03-27T07:24:22.874Z,57.70
2019-03-27T07:26:55.006Z,57.10
2019-03-27T07:29:27.367Z,57.00
2019-03-27T07:31:59.497Z,56.80
2019-03-27T07:34:32.503Z,56.70
2019-03-27T07:37:04.588Z,56.50
2019-03-27T07:39:36.554Z,56.30
2019-03-27T07:42:08.592Z,56.00
2019-03-27T07:44:40.629Z,56.10
2019-03-27T07:47:12.553Z,55.90
2019-03-27T07:49:44.670Z,55.70
2019-03-27T07:52:17.854Z,55.40
2019-03-27T07:54:50.053Z,55.50
2019-03-27T07:57:22.201Z,55.30
2019-03-27T07:59:54.088Z,55.10
2019-03-27T08:02:26.075Z,54.90
2019-03-27T08:04:58.021Z,54.80
2019-03-27T08:07:30.003Z,54.70
2019-03-27T08:10:02.186Z,54.50
2019-03-27T08:12:34.121Z,54.50
2019-03-27T08:15:06.544Z,54.20
2019-03-27T08:17:38.712Z,54.00
2019-03-27T08:20:12.280Z,53.90
2019-03-27T08:22:44.427Z,52.90
2019-03-27T08:25:16.856Z,52.20
2019-03-27T08:27:48.781Z,52.40
2019-03-27T08:30:21.238Z,52.50
2019-03-27T08:32:53.404Z,52.60
2019-03-27T08:35:26.587Z,52.10
2019-03-27T08:37:58.526Z,51.40
2019-03-27T08:40:30.373Z,51.40
2019-03-27T08:43:02.409Z,50.60
2019-03-27T08:45:34.392Z,50.60
2019-03-27T08:48:06.520Z,50.10
2019-03-27T08:50:39.616Z,50.00
2019-03-27T08:53:11.644Z,49.60
2019-03-27T08:55:43.682Z,49.40
2019-03-27T08:58:15.791Z,49.40
2019-03-27T09:00:52.489Z,49.30
2019-03-27T09:03:24.629Z,49.60
2019-03-27T09:05:56.680Z,49.40
2019-03-27T09:08:28.681Z,49.50
2019-03-27T09:11:04.367Z,49.80
2019-03-27T09:13:34.829Z,49.90
2019-03-27T09:16:06.885Z,49.70
2019-03-27T09:18:38.921Z,49.70
2019-03-27T09:21:11.188Z,49.50
2019-03-27T09:23:45.690Z,49.50
2019-03-27T09:26:16.888Z,50.00
2019-03-27T09:28:48.802Z,49.30
2019-03-27T09:31:20.845Z,49.50
2019-03-27T09:33:52.664Z,49.20
2019-03-27T09:36:24.633Z,48.70
2019-03-27T09:38:56.693Z,49.00
2019-03-27T09:41:28.749Z,49.20
2019-03-27T09:44:00.716Z,48.90
2019-03-27T09:46:32.593Z,49.00
2019-03-27T09:49:05.539Z,48.90
2019-03-27T09:51:37.749Z,49.20
2019-03-27T09:54:09.820Z,49.40
2019-03-27T09:56:41.789Z,49.10
2019-03-27T09:59:13.737Z,49.50
2019-03-27T10:01:45.830Z,49.60
2019-03-27T10:04:17.829Z,49.70
2019-03-27T10:06:49.932Z,49.40
2019-03-27T10:09:22.031Z,49.50
2019-03-27T10:11:54.249Z,48.90
2019-03-27T10:14:26.257Z,49.10
2019-03-27T10:16:58.285Z,49.20
2019-03-27T10:19:30.206Z,48.60
2019-03-27T10:22:02.202Z,48.40
2019-03-27T10:24:34.310Z,48.00
2019-03-27T10:27:06.397Z,48.10
2019-03-27T10:29:38.259Z,48.30
2019-03-27T10:32:10.333Z,48.50
2019-03-27T10:34:42.382Z,47.30
2019-03-27T10:37:15.238Z,47.30
2019-03-27T10:39:47.173Z,47.80
2019-03-27T10:42:19.196Z,47.70
2019-03-27T10:44:51.184Z,47.20
2019-03-27T10:47:23.364Z,46.70
2019-03-27T10:49:55.437Z,46.00
2019-03-27T10:52:27.428Z,45.70
2019-03-27T10:55:00.560Z,45.10
2019-03-27T10:57:32.575Z,44.70
2019-03-27T11:00:05.275Z,44.70
2019-03-27T11:02:37.421Z,44.90
2019-03-27T11:05:09.847Z,44.00
2019-03-27T11:07:41.870Z,44.20
2019-03-27T11:10:14.258Z,44.50
2019-03-27T11:12:46.218Z,44.80
2019-03-27T11:15:18.434Z,44.70
2019-03-27T11:17:50.529Z,44.70
2019-03-27T11:20:30.996Z,44.50
2019-03-27T11:22:56.349Z,44.00
2019-03-27T11:25:28.265Z,43.90
2019-03-27T11:28:00.152Z,43.30
2019-03-27T11:30:39.668Z,43.00
2019-03-27T11:33:11.985Z,43.40
2019-03-27T11:35:43.957Z,43.00
2019-03-27T11:38:16.802Z,43.10
2019-03-27T11:40:48.710Z,42.90
2019-03-27T11:43:20.831Z,43.10
2019-03-27T11:45:52.856Z,43.10
2019-03-27T11:48:24.873Z,42.90
2019-03-27T11:50:56.717Z,42.90
2019-03-27T11:53:29.076Z,43.00
2019-03-27T11:56:03.369Z,42.00
2019-03-27T11:58:34.741Z,41.90
2019-03-27T12:01:07.041Z,42.10
2019-03-27T12:03:38.965Z,42.20
2019-03-27T12:06:11.007Z,41.80
2019-03-27T12:08:43.116Z,41.60
2019-03-27T12:11:15.145Z,41.40
2019-03-27T12:13:49.901Z,41.40
2019-03-27T12:16:23.131Z,41.20
2019-03-27T12:18:55.183Z,41.20
2019-03-27T12:21:27.761Z,41.40
2019-03-27T12:23:59.862Z,41.00
2019-03-27T12:26:34.344Z,40.70
2019-03-27T12:29:06.805Z,40.60
2019-03-27T12:31:38.778Z,40.80
2019-03-27T12:34:11.105Z,40.50
2019-03-27T12:36:44.142Z,41.10
2019-03-27T12:39:16.059Z,41.10
2019-03-27T12:41:48.141Z,41.20
2019-03-27T12:44:20.219Z,41.20
2019-03-27T12:46:52.289Z,41.00
2019-03-27T12:49:24.381Z,40.40
2019-03-27T12:51:56.388Z,40.90
2019-03-27T12:57:09.570Z,40.70
2019-03-27T12:59:41.683Z,40.10
2019-03-27T13:02:14.031Z,40.50
2019-03-27T13:04:57.756Z,40.70
2019-03-27T13:07:32.062Z,41.20
2019-03-27T13:10:04.400Z,40.80
2019-03-27T13:12:39.073Z,40.80
2019-03-27T13:15:16.571Z,40.90
2019-03-27T13:17:50.957Z,40.70
2019-03-27T13:20:36.402Z,40.40
2019-03-27T13:23:10.745Z,40.50
2019-03-27T13:25:43.144Z,40.80
2019-03-27T13:28:16.892Z,40.90
2019-03-27T13:30:49.949Z,40.70
2019-03-27T13:33:22.224Z,40.80
2019-03-27T13:35:54.212Z,40.50
2019-03-27T13:38:26.241Z,40.50
2019-03-27T13:40:59.280Z,40.20
2019-03-27T13:43:33.174Z,40.40
2019-03-27T13:46:05.229Z,39.90
2019-03-27T13:48:37.701Z,39.90
2019-03-27T13:51:13.907Z,39.80
2019-03-27T13:53:53.635Z,39.60
2019-03-27T13:56:25.703Z,39.40
2019-03-27T13:58:58.358Z,39.10
2019-03-27T14:01:30.386Z,39.50
2019-03-27T14:04:02.403Z,39.80
2019-03-27T14:06:34.502Z,39.40
2019-03-27T14:09:08.594Z,39.50
2019-03-27T14:11:41.936Z,40.00
2019-03-27T14:14:17.077Z,39.60
2019-03-27T14:16:49.533Z,39.70
2019-03-27T14:19:22.725Z,39.90
2019-03-27T14:21:55.363Z,39.70
2019-03-27T14:24:28.283Z,40.00
2019-03-27T14:27:02.331Z,40.20
2019-03-27T14:29:35.111Z,40.10
2019-03-27T14:32:07.158Z,40.20
2019-03-27T14:34:39.310Z,40.10
2019-03-27T14:37:12.264Z,40.30
2019-03-27T14:39:45.907Z,40.40
2019-03-27T14:42:21.226Z,40.20
2019-03-27T14:44:53.170Z,40.20
2019-03-27T14:47:25.659Z,40.10
2019-03-27T14:49:57.749Z,40.20
2019-03-27T14:52:31.553Z,40.20
2019-03-27T14:55:04.788Z,40.10
2019-03-27T14:57:39.354Z,39.70
2019-03-27T15:00:15.163Z,40.10
2019-03-27T15:02:52.625Z,39.80
2019-03-27T15:05:48.008Z,40.00
2019-03-27T15:08:20.244Z,40.40
2019-03-27T15:10:55.040Z,40.20
2019-03-27T15:13:27.497Z,40.00
2019-03-27T15:15:59.824Z,39.80
2019-03-27T15:18:32.469Z,40.20
2019-03-27T15:21:11.588Z,40.00
2019-03-27T15:23:46.025Z,39.40
2019-03-27T15:26:23.447Z,39.80
2019-03-27T15:28:55.511Z,39.70
2019-03-27T15:31:29.253Z,39.60
2019-03-27T15:34:02.320Z,39.60
2019-03-27T15:36:36.130Z,39.40
2019-03-27T15:39:09.225Z,39.40
2019-03-27T15:41:41.520Z,39.50
2019-03-27T15:44:14.566Z,39.20
2019-03-27T15:46:49.170Z,39.10
2019-03-27T15:49:21.738Z,39.10
2019-03-27T15:51:53.798Z,39.20
2019-03-27T15:54:25.893Z,38.90
2019-03-27T15:57:00.789Z,38.90
2019-03-27T15:59:33.527Z,38.80
2019-03-27T16:02:07.908Z,38.90
2019-03-27T16:04:44.697Z,39.30
2019-03-27T16:07:17.361Z,39.50
2019-03-27T16:09:50.129Z,39.20
2019-03-27T16:12:22.520Z,39.00
2019-03-27T16:15:08.940Z,39.00
2019-03-27T16:17:48.978Z,39.10
2019-03-27T16:20:22.888Z,39.40
2019-03-27T16:22:56.486Z,39.60
2019-03-27T16:25:29.483Z,39.70
2019-03-27T16:28:14.481Z,39.80
2019-03-27T16:30:52.250Z,39.80
2019-03-27T16:33:24.766Z,39.80
2019-03-27T16:35:57.578Z,39.90
2019-03-27T16:38:29.565Z,40.00
2019-03-27T16:41:01.601Z,40.00
2019-03-27T16:43:33.913Z,40.10
2019-03-27T16:46:06.341Z,40.20
2019-03-27T16:48:38.446Z,40.20
2019-03-27T16:51:10.561Z,40.40
2019-03-27T16:53:42.879Z,40.50
2019-03-27T16:56:15.396Z,40.40
2019-03-27T16:58:47.697Z,40.50
2019-03-27T17:01:20.038Z,40.30
2019-03-27T17:03:52.262Z,40.50
2019-03-27T17:06:24.469Z,40.70
2019-03-27T17:08:56.598Z,40.90
2019-03-27T17:11:28.846Z,41.00
2019-03-27T17:14:00.941Z,41.00
2019-03-27T17:16:33.100Z,41.00
2019-03-27T17:19:05.333Z,41.20
2019-03-27T17:21:38.245Z,41.10
2019-03-27T17:24:10.464Z,41.20
2019-03-27T17:26:42.885Z,41.50
2019-03-27T17:29:18.093Z,41.50
2019-03-27T17:32:02.791Z,41.60
2019-03-27T17:34:35.113Z,41.60
2019-03-27T17:37:12.741Z,41.50
2019-03-27T17:39:47.884Z,41.70
2019-03-27T17:42:20.821Z,41.80
2019-03-27T17:44:53.102Z,41.80
2019-03-27T17:47:25.967Z,41.80
2019-03-27T17:49:59.471Z,41.80
2019-03-27T17:52:31.381Z,41.80
2019-03-27T17:55:03.522Z,42.00
2019-03-27T17:57:37.338Z,42.00
2019-03-27T18:00:10.440Z,42.00
2019-03-27T18:02:42.628Z,42.20
2019-03-27T18:05:14.997Z,42.10
2019-03-27T18:07:49.731Z,42.20
2019-03-27T18:10:22.179Z,42.20
2019-03-27T18:12:54.282Z,42.30
2019-03-27T18:15:26.651Z,42.30
2019-03-27T18:17:58.840Z,42.40
2019-03-27T18:20:32.086Z,42.70
2019-03-27T18:23:08.537Z,42.70
2019-03-27T18:25:40.860Z,42.80
2019-03-27T18:28:12.877Z,42.80
2019-03-27T18:30:45.140Z,42.90
2019-03-27T18:33:17.872Z,43.00
2019-03-27T18:35:50.019Z,43.00
2019-03-27T18:38:22.050Z,43.10
2019-03-27T18:40:54.046Z,43.30
2019-03-27T18:43:26.591Z,43.40
2019-03-27T18:45:58.874Z,43.30
2019-03-27T18:48:31.137Z,43.60
2019-03-27T18:51:06.835Z,43.60
2019-03-27T18:53:39.082Z,43.80
2019-03-27T18:56:11.100Z,43.90
2019-03-27T18:58:45.045Z,44.10
2019-03-27T19:01:17.205Z,44.30
2019-03-27T19:03:49.680Z,44.40
2019-03-27T19:06:24.943Z,44.40
2019-03-27T19:08:57.042Z,44.50
2019-03-27T19:11:29.544Z,44.60
2019-03-27T19:14:04.953Z,45.30
2019-03-27T19:16:37.382Z,44.90
2019-03-27T19:19:09.479Z,45.00
2019-03-27T19:21:44.194Z,45.20
2019-03-27T19:24:17.150Z,45.20
2019-03-27T19:26:49.448Z,45.30
2019-03-27T19:29:24.407Z,45.40
2019-03-27T19:31:58.199Z,45.40
2019-03-27T19:34:30.437Z,45.50
2019-03-27T19:37:02.899Z,45.70
2019-03-27T19:39:36.078Z,45.70
2019-03-27T19:42:09.028Z,45.80
2019-03-27T19:44:41.740Z,45.90
2019-03-27T19:47:13.755Z,46.00
2019-03-27T19:49:48.868Z,46.10
2019-03-27T19:52:27.454Z,46.10
2019-03-27T19:55:00.097Z,46.20
2019-03-27T19:57:32.638Z,46.30
2019-03-27T20:00:06.491Z,46.20
2019-03-27T20:02:41.627Z,46.30
2019-03-27T20:05:15.671Z,46.50
2019-03-27T20:07:49.752Z,46.70
2019-03-27T20:10:21.813Z,46.80
2019-03-27T20:12:54.174Z,46.80
2019-03-27T20:15:29.437Z,46.80
2019-03-27T20:18:01.645Z,47.00
2019-03-27T20:20:34.104Z,47.00
2019-03-27T20:23:15.105Z,47.00
2019-03-27T20:25:43.793Z,47.50
2019-03-27T20:28:17.029Z,46.70
2019-03-27T20:30:49.534Z,46.80
2019-03-27T20:33:23.583Z,46.90
2019-03-27T20:35:56.824Z,46.80
2019-03-27T20:38:29.061Z,47.10
2019-03-27T20:41:10.468Z,47.20
2019-03-27T20:43:45.337Z,47.20
2019-03-27T20:46:25.012Z,47.00
2019-03-27T20:48:52.750Z,46.90
2019-03-27T20:51:27.944Z,47.10
2019-03-27T20:54:01.553Z,47.10
2019-03-27T20:56:40.636Z,47.10
2019-03-27T20:59:20.118Z,47.20
2019-03-27T21:01:52.082Z,47.10
2019-03-27T21:04:26.680Z,47.30
2019-03-27T21:07:01.705Z,47.40
2019-03-27T21:09:40.221Z,47.50
2019-03-27T21:12:12.427Z,47.50
2019-03-27T21:14:44.348Z,47.30
2019-03-27T21:17:21.012Z,47.40
2019-03-27T21:19:54.122Z,47.50
2019-03-27T21:22:31.957Z,47.50
2019-03-27T21:25:09.233Z,47.60
2019-03-27T21:27:44.523Z,47.60
2019-03-27T21:30:21.366Z,47.80
2019-03-27T21:32:54.853Z,47.80
2019-03-27T21:35:30.964Z,47.90
2019-03-27T21:38:03.486Z,47.90
2019-03-27T21:40:35.536Z,48.10
2019-03-27T21:43:09.030Z,48.00
2019-03-27T21:45:47.655Z,48.10
2019-03-27T21:48:20.153Z,48.20
2019-03-27T21:50:55.008Z,48.20
2019-03-27T21:53:27.081Z,48.40
2019-03-27T21:55:59.115Z,48.40
2019-03-27T21:58:31.323Z,48.50
2019-03-27T22:01:03.729Z,48.50
2019-03-27T22:03:35.845Z,48.60
2019-03-27T22:06:08.207Z,48.60
2019-03-27T22:08:40.225Z,48.70
2019-03-27T22:11:12.439Z,48.70
2019-03-27T22:13:44.460Z,48.70
2019-03-27T22:16:16.831Z,48.80
2019-03-27T22:18:50.641Z,49.00
2019-03-27T22:21:23.173Z,48.90
2019-03-27T22:23:55.418Z,48.90
2019-03-27T22:26:27.714Z,48.90
2019-03-27T22:28:59.831Z,49.10
2019-03-27T22:31:32.442Z,49.10
2019-03-27T22:34:08.916Z,49.20
2019-03-27T22:36:44.452Z,49.20
2019-03-27T22:39:16.629Z,49.10
2019-03-27T22:41:48.789Z,49.10
2019-03-27T22:44:21.237Z,49.20
2019-03-27T22:46:53.431Z,49.20
2019-03-27T22:49:25.600Z,49.20
2019-03-27T22:51:57.833Z,49.30
2019-03-27T22:54:30.123Z,49.40
2019-03-27T22:57:09.744Z,49.50
2019-03-27T22:59:42.346Z,49.40
2019-03-27T23:02:14.965Z,49.50
2019-03-27T23:04:48.623Z,49.50
2019-03-27T23:07:22.980Z,49.50
2019-03-27T23:09:55.108Z,49.60
2019-03-27T23:12:27.485Z,49.70
2019-03-27T23:14:59.502Z,49.80
2019-03-27T23:17:32.865Z,49.80
2019-03-27T23:20:05.973Z,49.90
2019-03-27T23:22:38.265Z,49.90
2019-03-27T23:25:10.701Z,50.00
2019-03-27T23:27:42.723Z,50.00
2019-03-27T23:30:16.551Z,50.20
2019-03-27T23:32:51.558Z,50.10
2019-03-27T23:35:23.780Z,50.10
2019-03-27T23:37:55.903Z,50.10
2019-03-27T23:40:27.955Z,50.10
2019-03-27T23:43:01.005Z,50.20
2019-03-27T23:45:33.120Z,50.10
2019-03-27T23:48:05.233Z,50.20
2019-03-27T23:50:37.336Z,50.30
2019-03-27T23:53:09.580Z,50.30
2019-03-27T23:55:41.581Z,50.30
2019-03-27T23:58:14.697Z,50.30
